Time;durP1;ratioP1;P1;durP2;ratioP2;P2;SDS_P1;SDS_P2;PMS_P1;PMS_P2;Temp;Humidity;BMP_temperature;BMP_pressure;BME280_temperature;BME280_humidity;BME280_pressure;Samples;Min_cycle;Max_cycle;Signal;HPM_P1;HPM_P2
2023/09/24 00:03:59;;;;;;;0.20;0.20;;;;;;;15.55;100.00;100471.78;10498169;28;20423;-85
2023/09/24 00:09:03;;;;;;;0.28;0.20;;;;;;;15.58;100.00;100479.44;10491011;28;20047;-85
2023/09/24 00:14:06;;;;;;;0.10;0.10;;;;;;;15.53;100.00;100478.75;10515307;28;20451;-83
2023/09/24 00:19:08;;;;;;;0.10;0.10;;;;;;;15.42;100.00;100489.28;10467031;28;20041;-84
2023/09/24 00:24:11;;;;;;;0.32;0.32;;;;;;;15.38;100.00;100491.03;10521739;28;20055;-85
2023/09/24 00:29:14;;;;;;;0.10;0.08;;;;;;;15.35;100.00;100492.50;10502088;28;20617;-85
2023/09/24 00:34:17;;;;;;;0.35;0.30;;;;;;;15.15;100.00;100495.78;10500702;28;20040;-85
2023/09/24 00:39:19;;;;;;;0.00;0.00;;;;;;;14.94;100.00;100511.25;10493608;28;20033;-85
2023/09/24 00:44:22;;;;;;;0.00;0.00;;;;;;;14.86;100.00;100523.03;10501640;28;20036;-85
2023/09/24 00:49:27;;;;;;;0.10;0.10;;;;;;;14.71;100.00;100525.03;10463128;28;20056;-85
2023/09/24 00:54:30;;;;;;;0.00;0.00;;;;;;;14.58;100.00;100533.34;10513173;28;20049;-85
2023/09/24 00:59:33;;;;;;;0.32;0.25;;;;;;;14.42;100.00;100539.19;10515434;28;20525;-85
2023/09/24 01:04:36;;;;;;;0.00;0.00;;;;;;;14.40;100.00;100554.41;10516145;28;20041;-85
2023/09/24 01:09:38;;;;;;;0.30;0.10;;;;;;;14.33;100.00;100557.59;10492497;28;20135;-85
2023/09/24 01:14:41;;;;;;;0.10;0.10;;;;;;;14.28;100.00;100552.19;10489127;28;20048;-85
2023/09/24 01:19:44;;;;;;;0.00;0.00;;;;;;;14.33;100.00;100554.84;10477993;28;20491;-85
2023/09/24 01:24:46;;;;;;;0.10;0.10;;;;;;;14.33;100.00;100565.88;10521620;28;20037;-85
2023/09/24 01:29:48;;;;;;;0.00;0.00;;;;;;;14.33;100.00;100570.56;10522479;28;20032;-85
2023/09/24 01:34:51;;;;;;;0.00;0.00;;;;;;;14.36;100.00;100561.69;10491999;28;20029;-84
2023/09/24 01:39:54;;;;;;;0.00;0.00;;;;;;;14.37;100.00;100552.25;10502599;28;20061;-85
2023/09/24 01:44:56;;;;;;;0.00;0.00;;;;;;;14.31;100.00;100542.47;10474149;28;20049;-84
2023/09/24 01:49:58;;;;;;;0.00;0.00;;;;;;;14.40;100.00;100538.66;10526513;28;20056;-85
2023/09/24 01:55:01;;;;;;;0.00;0.00;;;;;;;14.31;100.00;100540.53;10501526;28;20515;-85
2023/09/24 02:00:11;;;;;;;0.10;0.05;;;;;;;14.23;100.00;100530.22;10485026;28;20075;-85
2023/09/24 02:05:14;;;;;;;0.10;0.10;;;;;;;14.22;100.00;100534.06;10514810;28;20048;-84
2023/09/24 02:10:20;;;;;;;0.10;0.10;;;;;;;14.14;100.00;100557.72;10530809;28;20033;-85
2023/09/24 02:15:23;;;;;;;0.00;0.00;;;;;;;14.19;100.00;100576.09;10497652;28;20403;-85
2023/09/24 02:20:31;;;;;;;0.00;0.00;;;;;;;14.08;100.00;100597.56;10474255;28;20033;-85
2023/09/24 02:25:37;;;;;;;0.30;0.20;;;;;;;14.14;100.00;100601.84;10485649;28;20055;-84
2023/09/24 02:30:39;;;;;;;0.00;0.00;;;;;;;14.07;100.00;100623.53;10499022;28;20037;-85
2023/09/24 02:35:42;;;;;;;0.65;0.20;;;;;;;14.13;100.00;100618.72;10527512;28;20578;-84
2023/09/24 02:40:44;;;;;;;0.08;0.08;;;;;;;14.27;100.00;100621.50;10492332;28;20033;-84
2023/09/24 02:45:47;;;;;;;0.05;0.00;;;;;;;13.95;100.00;100579.06;10523133;28;20039;-83
2023/09/24 02:50:51;;;;;;;0.05;0.00;;;;;;;13.71;100.00;100595.78;10465995;28;20629;-85
2023/09/24 02:55:54;;;;;;;0.13;0.13;;;;;;;13.80;100.00;100613.25;10511651;28;20056;-85
2023/09/24 03:00:57;;;;;;;0.00;0.00;;;;;;;13.86;100.00;100609.28;10473802;28;20040;-85
2023/09/24 03:05:59;;;;;;;0.00;0.00;;;;;;;13.92;100.00;100603.69;10504527;28;20037;-84
2023/09/24 03:11:02;;;;;;;1.13;0.10;;;;;;;13.92;100.00;100609.19;10496997;28;20045;-84
2023/09/24 03:16:05;;;;;;;0.20;0.20;;;;;;;13.99;100.00;100609.59;10515738;28;20052;-86
2023/09/24 03:21:12;;;;;;;0.00;0.00;;;;;;;14.03;100.00;100605.94;10508472;28;20036;-84
2023/09/24 03:26:16;;;;;;;0.00;0.00;;;;;;;14.11;100.00;100609.94;10515813;28;20036;-85
2023/09/24 03:31:20;;;;;;;0.00;0.00;;;;;;;14.12;100.00;100625.38;10480184;28;20495;-85
2023/09/24 03:36:22;;;;;;;0.10;0.10;;;;;;;14.10;100.00;100624.84;10489273;28;20044;-85
2023/09/24 03:41:25;;;;;;;0.30;0.30;;;;;;;14.05;100.00;100634.03;10515297;28;20486;-84
2023/09/24 03:46:27;;;;;;;0.15;0.15;;;;;;;14.03;100.00;100649.25;10477041;28;20032;-85
2023/09/24 03:51:30;;;;;;;0.00;0.00;;;;;;;13.95;100.00;100661.00;10516921;28;20506;-84
2023/09/24 03:56:33;;;;;;;0.47;0.47;;;;;;;13.95;100.00;100667.34;10457573;28;20380;-85
2023/09/24 04:01:38;;;;;;;0.00;0.00;;;;;;;13.88;100.00;100673.25;10472246;28;20047;-85
2023/09/24 04:06:44;;;;;;;0.10;0.10;;;;;;;13.87;100.00;100674.34;10484972;28;20033;-85
2023/09/24 04:11:47;;;;;;;0.00;0.00;;;;;;;13.90;100.00;100684.00;10478757;28;20420;-86
2023/09/24 04:16:50;;;;;;;0.10;0.10;;;;;;;13.86;100.00;100694.78;10458017;28;20481;-84
2023/09/24 04:21:53;;;;;;;0.45;0.45;;;;;;;14.00;100.00;100699.53;10459303;28;20045;-85
2023/09/24 04:26:56;;;;;;;1.13;0.20;;;;;;;13.99;100.00;100703.41;10455574;28;20042;-84
2023/09/24 04:31:59;;;;;;;0.52;0.10;;;;;;;14.06;100.00;100721.22;10471628;28;20048;-85
2023/09/24 04:37:02;;;;;;;0.30;0.00;;;;;;;14.07;100.00;100725.63;10448209;28;20041;-85
2023/09/24 04:42:06;;;;;;;0.00;0.00;;;;;;;14.09;100.00;100742.69;10453889;28;20072;-85
2023/09/24 04:47:09;;;;;;;0.00;0.00;;;;;;;14.18;100.00;100749.16;10445063;28;20052;-85
2023/09/24 04:52:11;;;;;;;0.20;0.10;;;;;;;14.12;100.00;100752.31;10484472;28;20053;-84
2023/09/24 04:57:22;;;;;;;0.00;0.00;;;;;;;14.23;100.00;100753.78;10404198;28;20507;-85
2023/09/24 05:02:26;;;;;;;3.03;0.13;;;;;;;14.45;100.00;100769.69;10446047;28;20042;-85
2023/09/24 05:07:29;;;;;;;0.00;0.00;;;;;;;15.15;100.00;100777.72;10443566;28;20044;-85
2023/09/24 05:12:32;;;;;;;0.00;0.00;;;;;;;15.33;100.00;100779.53;10442274;28;20049;-84
2023/09/24 05:17:34;;;;;;;0.00;0.00;;;;;;;15.02;98.52;100786.84;10419454;28;20060;-85
2023/09/24 05:22:40;;;;;;;0.08;0.03;;;;;;;14.87;100.00;100795.41;10428487;28;20044;-85
2023/09/24 05:27:42;;;;;;;0.00;0.00;;;;;;;14.77;100.00;100802.78;10441860;28;20041;-85
2023/09/24 05:32:45;;;;;;;0.17;0.17;;;;;;;14.66;99.88;100809.63;10450255;28;20510;-85
2023/09/24 05:37:48;;;;;;;1.58;1.13;;;;;;;14.61;100.00;100804.19;10451436;28;20044;-84
2023/09/24 05:42:50;;;;;;;1.20;1.10;;;;;;;14.70;100.00;100812.59;10466504;28;20037;-84
2023/09/24 05:47:54;;;;;;;1.30;1.13;;;;;;;14.76;100.00;100817.72;10432281;28;20037;-85
2023/09/24 05:52:56;;;;;;;1.70;1.40;;;;;;;14.71;100.00;100823.31;10410566;28;20111;-83
2023/09/24 05:58:04;;;;;;;1.25;1.15;;;;;;;14.64;100.00;100820.16;10476334;28;20036;-83
2023/09/24 06:03:08;;;;;;;2.30;1.50;;;;;;;14.80;100.00;100829.00;10482295;28;20423;-88
2023/09/24 06:08:14;;;;;;;2.42;1.50;;;;;;;14.74;100.00;100830.19;10483741;28;20045;-85
2023/09/24 06:13:16;;;;;;;4.75;1.75;;;;;;;14.71;100.00;100836.31;10493428;28;20044;-86
2023/09/24 06:18:18;;;;;;;3.72;2.05;;;;;;;15.15;100.00;100841.28;10472132;28;20041;-84
2023/09/24 06:23:22;;;;;;;3.55;2.45;;;;;;;15.06;99.02;100840.34;10417548;28;20045;-84
2023/09/24 06:28:26;;;;;;;5.05;2.33;;;;;;;15.25;97.63;100841.06;10459173;28;20132;-85
2023/09/24 06:33:31;;;;;;;4.45;2.13;;;;;;;15.24;97.03;100849.69;10470541;28;20037;-85
2023/09/24 06:38:34;;;;;;;2.75;2.35;;;;;;;15.13;96.32;100865.66;10457042;28;20052;-85
2023/09/24 06:43:37;;;;;;;4.43;2.53;;;;;;;14.92;95.89;100869.91;10473319;28;20044;-85
2023/09/24 06:48:40;;;;;;;4.30;2.63;;;;;;;14.74;97.04;100877.16;10467806;28;20045;-84
2023/09/24 06:53:46;;;;;;;4.97;2.50;;;;;;;14.88;97.50;100879.94;10489375;28;20053;-83
2023/09/24 06:58:50;;;;;;;5.70;3.08;;;;;;;14.84;97.31;100892.72;10484797;28;20045;-84
2023/09/24 07:03:53;;;;;;;3.42;2.80;;;;;;;15.00;96.31;100891.34;10448078;28;20041;-84
2023/09/24 07:08:56;;;;;;;4.30;2.78;;;;;;;15.01;95.69;100901.25;10476811;28;20037;-86
2023/09/24 07:14:00;;;;;;;3.80;2.78;;;;;;;15.08;95.71;100915.50;10461881;28;20037;-85
2023/09/24 07:19:03;;;;;;;3.20;2.72;;;;;;;15.51;93.00;100921.59;10443566;28;20041;-83
2023/09/24 07:24:06;;;;;;;4.55;3.10;;;;;;;15.66;91.51;100918.53;10423119;28;20048;-87
2023/09/24 07:29:08;;;;;;;5.07;2.97;;;;;;;15.70;91.44;100929.00;10421167;28;20033;-84
2023/09/24 07:34:12;;;;;;;3.30;2.45;;;;;;;15.38;91.45;100937.03;10423237;28;20051;-85
2023/09/24 07:39:15;;;;;;;4.03;2.78;;;;;;;15.39;92.91;100952.50;10432733;28;20038;-89
2023/09/24 07:44:18;;;;;;;5.57;3.15;;;;;;;15.60;91.79;100949.38;10447162;28;20041;-85
2023/09/24 07:49:21;;;;;;;2.97;2.63;;;;;;;15.56;90.66;100949.13;10431301;28;20033;-83
2023/09/24 07:54:23;;;;;;;6.25;2.83;;;;;;;15.89;89.91;100944.34;10416972;28;20111;-85
2023/09/24 07:59:26;;;;;;;4.88;3.25;;;;;;;16.43;88.08;100967.50;10453878;28;20047;-84
2023/09/24 08:04:30;;;;;;;2.97;2.53;;;;;;;16.50;86.23;100969.88;10453993;28;20044;-84
2023/09/24 08:09:32;;;;;;;3.72;2.58;;;;;;;16.43;85.81;100972.22;10469383;28;20037;-85
2023/09/24 08:14:41;;;;;;;5.72;2.40;;;;;;;16.10;86.31;100977.13;10470315;28;20124;-85
2023/09/24 08:19:44;;;;;;;4.20;2.65;;;;;;;16.40;85.91;100986.69;10477171;28;20044;-89
2023/09/24 08:24:47;;;;;;;4.40;2.58;;;;;;;16.67;84.01;100991.38;10435322;28;20047;-88
2023/09/24 08:29:53;;;;;;;2.88;2.33;;;;;;;17.18;80.93;100986.22;10432363;28;20087;-84
2023/09/24 08:34:55;;;;;;;4.13;2.80;;;;;;;17.71;78.65;100992.88;10475906;28;20037;-86
2023/09/24 08:39:59;;;;;;;3.65;2.65;;;;;;;17.60;78.29;100991.47;10487403;28;20041;-87
2023/09/24 08:45:12;;;;;;;3.45;2.28;;;;;;;17.28;78.88;100996.19;10502156;28;20059;-88
2023/09/24 08:50:15;;;;;;;3.05;2.70;;;;;;;17.14;78.30;101001.00;10464458;28;20112;-93
2023/09/24 08:55:17;;;;;;;2.20;2.00;;;;;;;17.23;77.12;101001.91;10475699;28;20078;-87
2023/09/24 09:00:22;;;;;;;3.40;2.50;;;;;;;17.28;75.72;101006.47;10475859;28;20505;-85
2023/09/24 09:05:25;;;;;;;2.67;2.20;;;;;;;17.12;76.59;101012.41;10467588;28;20056;-86
2023/09/24 09:10:31;;;;;;;2.58;2.38;;;;;;;17.13;76.55;101011.28;10458139;28;20033;-87
2023/09/24 09:15:37;;;;;;;3.53;2.30;;;;;;;17.39;76.97;101013.41;10491615;28;20051;-87
2023/09/24 09:20:45;;;;;;;3.50;2.45;;;;;;;17.66;75.88;101012.38;10478498;28;20051;-92
2023/09/24 09:25:52;;;;;;;3.08;1.95;;;;;;;17.33;76.78;101034.09;10430260;28;20045;-87
2023/09/24 09:31:07;;;;;;;3.15;2.10;;;;;;;17.10;77.13;101031.31;10480348;28;20504;-86
2023/09/24 09:36:27;;;;;;;3.33;2.60;;;;;;;17.17;76.37;101044.75;10431918;28;20492;-87
2023/09/24 09:41:32;;;;;;;2.47;2.28;;;;;;;17.49;74.92;101054.75;10415228;28;20034;-87
2023/09/24 09:46:38;;;;;;;4.25;2.20;;;;;;;17.11;77.19;101055.16;10423621;28;20049;-85
2023/09/24 09:51:51;;;;;;;3.30;2.65;;;;;;;17.26;74.93;101051.19;10472472;28;20099;-87
2023/09/24 09:56:55;;;;;;;3.50;2.90;;;;;;;17.06;75.52;101060.00;10433945;28;20045;-86
2023/09/24 10:01:58;;;;;;;3.33;2.95;;;;;;;16.86;75.60;101066.88;10433047;28;20037;-87
2023/09/24 10:07:01;;;;;;;3.42;2.92;;;;;;;16.72;74.75;101069.66;10417098;28;20052;-87
2023/09/24 10:12:07;;;;;;;4.00;3.47;;;;;;;17.12;73.52;101076.19;10422177;28;20544;-87
2023/09/24 10:17:15;;;;;;;3.97;3.50;;;;;;;17.30;73.59;101085.47;10441080;28;20455;-86
2023/09/24 10:22:28;;;;;;;4.75;3.47;;;;;;;17.33;72.70;101087.59;10461309;28;20622;-85
2023/09/24 10:27:31;;;;;;;3.80;3.15;;;;;;;17.36;73.61;101095.31;10468922;28;20524;-85
2023/09/24 10:32:43;;;;;;;4.05;2.88;;;;;;;17.23;74.35;101098.97;10419547;28;20033;-85
2023/09/24 10:37:57;;;;;;;3.60;3.10;;;;;;;17.29;74.45;101103.25;10426454;28;20065;-85
2023/09/24 10:43:10;;;;;;;3.22;2.92;;;;;;;17.35;74.39;101096.44;10415108;28;20054;-85
2023/09/24 10:48:13;;;;;;;4.10;3.25;;;;;;;17.31;72.96;101102.94;10432003;28;20046;-85
2023/09/24 10:53:17;;;;;;;4.63;3.40;;;;;;;17.49;72.15;101101.91;10431270;28;20520;-85
2023/09/24 10:58:20;;;;;;;3.25;2.95;;;;;;;17.30;72.50;101115.16;10440752;28;20504;-85
2023/09/24 11:03:22;;;;;;;4.78;3.15;;;;;;;17.09;72.13;101110.09;10446627;28;20065;-85
2023/09/24 11:08:28;;;;;;;4.53;3.88;;;;;;;16.92;72.59;101109.13;10413717;28;20064;-85
2023/09/24 11:13:30;;;;;;;6.40;3.42;;;;;;;17.05;73.13;101108.28;10476565;28;20047;-85
2023/09/24 11:18:32;;;;;;;4.25;3.70;;;;;;;17.08;73.06;101124.28;10419899;28;20069;-85
2023/09/24 11:23:36;;;;;;;5.28;4.00;;;;;;;17.28;73.15;101122.97;10445532;28;20049;-85
2023/09/24 11:28:38;;;;;;;4.50;3.78;;;;;;;17.55;71.70;101122.88;10463032;28;20052;-85
2023/09/24 11:33:40;;;;;;;4.18;3.70;;;;;;;17.30;72.31;101126.25;10454574;28;20040;-85
2023/09/24 11:38:42;;;;;;;5.45;3.40;;;;;;;17.01;73.27;101121.09;10413479;28;20655;-85
2023/09/24 11:43:55;;;;;;;5.93;3.83;;;;;;;17.06;73.96;101121.00;10446691;28;20049;-85
2023/09/24 11:49:01;;;;;;;4.55;3.70;;;;;;;17.14;73.07;101121.06;10446151;28;20042;-85
2023/09/24 11:54:03;;;;;;;5.32;3.50;;;;;;;17.10;72.93;101117.28;10428676;28;20041;-84
2023/09/24 11:59:08;;;;;;;4.80;2.90;;;;;;;16.89;72.52;101118.91;10436885;28;20037;-85
2023/09/24 12:04:10;;;;;;;4.32;3.25;;;;;;;16.67;73.00;101127.16;10444795;28;20041;-85
2023/09/24 12:09:14;;;;;;;6.13;3.30;;;;;;;16.47;74.56;101137.50;10446325;28;20077;-85
2023/09/24 12:14:17;;;;;;;4.97;3.30;;;;;;;16.54;74.70;101137.91;10450020;28;20132;-85
2023/09/24 12:19:19;;;;;;;3.72;3.10;;;;;;;16.44;75.10;101140.88;10427586;28;20141;-85
2023/09/24 12:24:22;;;;;;;3.70;3.00;;;;;;;16.32;75.57;101134.22;10450365;28;20051;-85
2023/09/24 12:29:24;;;;;;;5.68;3.05;;;;;;;16.61;75.10;101133.91;10444589;28;20535;-85
2023/09/24 12:34:26;;;;;;;5.40;3.50;;;;;;;16.67;74.25;101129.94;10445036;28;20038;-85
2023/09/24 12:39:28;;;;;;;4.00;3.25;;;;;;;16.84;73.08;101119.03;10426071;28;20412;-85
2023/09/24 12:44:31;;;;;;;4.45;2.80;;;;;;;17.00;72.85;101128.59;10410313;28;20056;-85
2023/09/24 12:49:33;;;;;;;4.45;2.67;;;;;;;17.09;72.64;101123.97;10427300;28;20048;-85
2023/09/24 12:54:35;;;;;;;3.33;3.03;;;;;;;17.24;71.72;101131.13;10444055;28;20471;-85
2023/09/24 12:59:37;;;;;;;4.95;3.08;;;;;;;17.11;72.61;101132.78;10409453;28;20037;-85
2023/09/24 13:04:40;;;;;;;5.05;2.92;;;;;;;17.11;72.11;101135.56;10410731;28;20041;-85
2023/09/24 13:09:44;;;;;;;5.35;3.42;;;;;;;16.84;72.92;101147.56;10433691;28;20045;-85
2023/09/24 13:14:47;;;;;;;3.65;2.90;;;;;;;16.86;72.49;101142.53;10424808;28;20033;-85
2023/09/24 13:19:49;;;;;;;2.80;2.60;;;;;;;16.74;72.48;101142.22;10426615;28;20420;-85
2023/09/24 13:24:52;;;;;;;3.53;2.90;;;;;;;16.71;73.46;101142.03;10426249;28;20046;-85
2023/09/24 13:29:55;;;;;;;3.08;2.60;;;;;;;16.53;73.45;101133.50;10432723;28;20049;-85
2023/09/24 13:34:57;;;;;;;4.40;2.83;;;;;;;16.66;74.35;101139.31;10444351;28;20420;-85
2023/09/24 13:40:00;;;;;;;3.38;2.83;;;;;;;16.65;73.69;101143.22;10444342;28;20037;-85
2023/09/24 13:45:07;;;;;;;4.18;3.25;;;;;;;16.37;76.90;101142.44;10426599;28;20037;-85
2023/09/24 13:50:10;;;;;;;3.58;2.75;;;;;;;16.13;79.62;101143.44;10430317;28;20063;-85
2023/09/24 13:55:12;;;;;;;3.10;2.50;;;;;;;15.93;81.62;101161.25;10457639;28;20041;-85
2023/09/24 14:00:14;;;;;;;5.28;3.17;;;;;;;15.73;83.67;101150.53;10487387;28;20045;-86
2023/09/24 14:05:17;;;;;;;3.90;2.80;;;;;;;15.74;84.13;101149.41;10487226;28;20049;-85
2023/09/24 14:15:40;;;;;;;6.32;3.72;;;;;;;15.62;86.99;101160.16;10445486;28;20049;-85
2023/09/24 14:20:44;;;;;;;4.75;3.13;;;;;;;15.28;89.96;101150.16;10456731;28;20045;-85
2023/09/24 14:25:47;;;;;;;3.22;2.72;;;;;;;15.14;90.80;101162.25;10476856;28;20484;-91
2023/09/24 14:30:49;;;;;;;4.45;3.33;;;;;;;14.98;92.39;101153.34;10446020;28;20531;-88
2023/09/24 14:35:58;;;;;;;5.07;2.97;;;;;;;15.02;94.09;101165.47;10462889;28;20709;-88
2023/09/24 14:41:01;;;;;;;4.03;3.20;;;;;;;15.08;94.43;101158.72;10461153;28;20415;-83
2023/09/24 14:46:05;;;;;;;4.00;3.10;;;;;;;15.14;94.53;101154.78;10468847;28;20041;-83
2023/09/24 14:51:07;;;;;;;5.43;2.90;;;;;;;15.11;94.07;101160.09;10451951;28;20049;-86
2023/09/24 14:56:10;;;;;;;3.70;2.90;;;;;;;15.02;95.50;101162.69;10478423;28;20052;-86
2023/09/24 15:01:12;;;;;;;4.32;2.90;;;;;;;14.95;96.33;101173.31;10480832;28;20033;-88
2023/09/24 15:06:15;;;;;;;4.65;2.60;;;;;;;14.96;96.48;101161.94;10464042;28;20053;-85
2023/09/24 15:11:17;;;;;;;3.75;2.80;;;;;;;14.86;96.91;101175.06;10457568;28;20034;-81
2023/09/24 15:16:20;;;;;;;3.92;2.20;;;;;;;14.76;96.57;101171.34;10483438;28;20045;-85
2023/09/24 15:21:23;;;;;;;6.53;2.65;;;;;;;14.80;97.17;101184.56;10484392;28;20418;-85
2023/09/24 15:26:26;;;;;;;3.42;2.55;;;;;;;14.87;96.96;101210.69;10494079;28;20166;-84
2023/09/24 15:31:31;;;;;;;7.47;2.95;;;;;;;14.71;97.75;101234.91;10446341;28;20067;-88
2023/09/24 15:36:34;;;;;;;3.85;2.05;;;;;;;14.32;99.15;101237.81;10527423;28;20033;-85
2023/09/24 15:41:36;;;;;;;1.60;1.40;;;;;;;13.92;98.92;101238.19;10529425;28;20043;-86
2023/09/24 15:46:39;;;;;;;2.55;1.60;;;;;;;13.67;99.59;101239.22;10486439;28;20076;-85
2023/09/24 15:51:41;;;;;;;2.33;1.45;;;;;;;13.54;100.00;101244.28;10497236;28;20064;-86
2023/09/24 15:56:44;;;;;;;1.77;1.50;;;;;;;13.44;100.00;101247.09;10467812;28;20045;-87
2023/09/24 16:01:47;;;;;;;1.67;1.50;;;;;;;13.44;100.00;101249.84;10435027;28;20053;-86
2023/09/24 16:06:50;;;;;;;2.53;1.60;;;;;;;13.44;100.00;101249.03;10487148;28;20051;-86
2023/09/24 16:11:53;;;;;;;2.63;1.80;;;;;;;13.54;100.00;101260.81;10492215;28;20063;-87
2023/09/24 16:16:57;;;;;;;1.92;1.73;;;;;;;13.57;100.00;101267.69;10468189;28;20049;-87
2023/09/24 16:21:59;;;;;;;2.40;1.90;;;;;;;13.57;100.00;101262.19;10467545;28;20531;-85
2023/09/24 16:27:02;;;;;;;2.53;2.22;;;;;;;13.55;100.00;101268.00;10468007;28;20411;-86
2023/09/24 16:32:04;;;;;;;4.70;2.00;;;;;;;13.46;100.00;101277.97;10453471;28;20033;-90
2023/09/24 16:37:06;;;;;;;3.15;1.77;;;;;;;13.37;100.00;101282.44;10483216;28;20138;-89
2023/09/24 16:42:09;;;;;;;2.17;1.63;;;;;;;13.30;100.00;101281.91;10516872;28;20411;-89
2023/09/24 16:47:11;;;;;;;2.33;1.88;;;;;;;13.24;99.90;101283.88;10507438;28;20040;-88
2023/09/24 16:52:13;;;;;;;2.15;1.40;;;;;;;13.12;100.00;101285.28;10443394;28;20049;-88
2023/09/24 16:57:16;;;;;;;1.73;1.42;;;;;;;13.11;100.00;101284.44;10584612;28;20067;-90
2023/09/24 17:02:20;;;;;;;2.85;1.25;;;;;;;13.18;100.00;101295.19;10492430;28;20032;-88
2023/09/24 17:07:22;;;;;;;1.70;1.27;;;;;;;13.22;100.00;101305.38;10492082;28;20046;-88
2023/09/24 17:12:25;;;;;;;3.08;1.40;;;;;;;13.22;100.00;101312.81;10503056;28;20534;-88
2023/09/24 17:17:27;;;;;;;2.17;1.25;;;;;;;13.20;100.00;101320.56;10470831;28;20036;-89
2023/09/24 17:22:29;;;;;;;2.78;1.30;;;;;;;13.17;100.00;101315.56;10522968;28;20049;-89
2023/09/24 17:27:32;;;;;;;2.17;1.30;;;;;;;13.18;100.00;101318.06;10550775;28;20502;-90
2023/09/24 17:32:34;;;;;;;1.33;1.17;;;;;;;13.17;100.00;101326.56;10541209;28;20068;-86
2023/09/24 17:37:37;;;;;;;2.03;1.17;;;;;;;13.20;100.00;101334.34;10517714;28;20119;-86
2023/09/24 17:42:39;;;;;;;4.22;1.40;;;;;;;13.20;100.00;101345.38;10539036;28;20032;-86
2023/09/24 17:47:42;;;;;;;1.73;1.10;;;;;;;13.19;100.00;101336.28;10573865;28;20060;-85
2023/09/24 17:52:44;;;;;;;1.75;1.35;;;;;;;13.28;100.00;101350.28;10479109;28;20062;-86
2023/09/24 17:57:47;;;;;;;1.73;1.30;;;;;;;13.31;100.00;101351.63;10497264;28;20046;-86
2023/09/24 18:02:52;;;;;;;3.85;1.20;;;;;;;13.40;100.00;101349.97;10454901;28;20681;-87
2023/09/24 18:07:54;;;;;;;3.40;1.17;;;;;;;13.37;100.00;101356.88;10532905;28;20041;-87
2023/09/24 18:13:01;;;;;;;1.85;1.30;;;;;;;13.31;100.00;101357.97;10513852;28;20048;-87
2023/09/24 18:18:05;;;;;;;2.08;1.33;;;;;;;13.25;100.00;101372.91;10533313;28;20036;-88
2023/09/24 18:23:07;;;;;;;2.78;1.30;;;;;;;13.31;100.00;101377.28;10524536;28;20049;-88
2023/09/24 18:28:10;;;;;;;1.98;1.55;;;;;;;13.27;100.00;101379.78;10527989;28;20114;-88
2023/09/24 18:33:15;;;;;;;4.25;1.38;;;;;;;13.22;100.00;101384.47;10517547;28;20383;-86
2023/09/24 18:38:17;;;;;;;2.53;1.17;;;;;;;13.24;100.00;101399.63;10501622;28;20051;-91
2023/09/24 18:43:20;;;;;;;3.15;1.40;;;;;;;13.32;100.00;101398.22;10440718;28;20470;-90
2023/09/24 18:48:23;;;;;;;1.70;1.50;;;;;;;13.32;99.45;101408.41;10479317;28;20052;-89
2023/09/24 18:53:27;;;;;;;2.85;1.17;;;;;;;13.41;100.00;101410.31;10495718;28;20041;-88
2023/09/24 18:58:29;;;;;;;2.65;1.17;;;;;;;13.34;99.04;101415.28;10480843;28;20038;-89
2023/09/24 19:03:32;;;;;;;2.47;1.08;;;;;;;13.36;99.85;101426.84;10485427;28;20034;-87
2023/09/24 19:08:37;;;;;;;2.45;1.20;;;;;;;13.34;99.79;101431.84;10534004;28;20471;-84
2023/09/24 19:13:40;;;;;;;2.90;1.15;;;;;;;13.35;99.65;101433.47;10522282;28;20040;-84
2023/09/24 19:18:43;;;;;;;5.85;1.30;;;;;;;13.35;100.00;101441.75;10528041;28;20043;-87
2023/09/24 19:23:46;;;;;;;5.35;1.88;;;;;;;13.28;100.00;101444.81;10514506;28;20047;-89
2023/09/24 19:28:48;;;;;;;3.55;1.38;;;;;;;13.30;100.00;101440.94;10506833;28;20036;-84
2023/09/24 19:33:52;;;;;;;3.70;1.20;;;;;;;13.23;100.00;101453.09;10524679;28;20032;-85
2023/09/24 19:38:54;;;;;;;1.58;1.15;;;;;;;13.15;100.00;101466.56;10528120;28;20411;-89
2023/09/24 19:43:58;;;;;;;2.40;1.27;;;;;;;13.15;100.00;101461.06;10530237;28;20077;-88
2023/09/24 19:49:00;;;;;;;4.88;1.33;;;;;;;13.11;100.00;101473.75;10490157;28;20036;-86
2023/09/24 19:54:03;;;;;;;4.07;1.30;;;;;;;12.98;100.00;101481.47;10535524;28;20503;-85
2023/09/24 19:59:07;;;;;;;2.72;1.13;;;;;;;13.10;100.00;101486.72;10502699;28;20041;-86
2023/09/24 20:04:10;;;;;;;2.90;1.15;;;;;;;13.09;100.00;101489.75;10481178;28;20063;-84
2023/09/24 20:09:14;;;;;;;2.90;1.20;;;;;;;12.98;100.00;101494.41;10486785;28;20037;-85
2023/09/24 20:14:17;;;;;;;4.45;1.27;;;;;;;12.84;100.00;101501.59;10508215;28;20055;-85
2023/09/24 20:19:19;;;;;;;4.40;1.30;;;;;;;12.73;100.00;101509.03;10476066;28;20036;-85
2023/09/24 20:24:21;;;;;;;1.60;1.10;;;;;;;12.86;100.00;101510.44;10475367;28;20046;-86
2023/09/24 20:29:23;;;;;;;4.22;1.20;;;;;;;13.00;100.00;101519.75;10519516;28;20062;-86
2023/09/24 20:34:25;;;;;;;2.58;1.38;;;;;;;12.96;100.00;101525.00;10472693;28;20573;-86
2023/09/24 20:39:28;;;;;;;1.40;1.10;;;;;;;13.27;100.00;101525.84;10525416;28;20037;-86
2023/09/24 20:44:31;;;;;;;1.50;0.90;;;;;;;13.18;98.60;101526.69;10505107;28;20407;-86
2023/09/24 20:49:34;;;;;;;5.07;1.10;;;;;;;13.15;99.01;101532.72;10474358;28;20040;-85
2023/09/24 20:54:36;;;;;;;3.17;1.00;;;;;;;13.31;98.91;101531.63;10486151;28;20052;-86
2023/09/24 21:00:04;;;;;;;3.28;1.17;;;;;;;13.30;97.33;101549.28;10495113;28;20040;-86
2023/09/24 21:05:09;;;;;;;1.92;1.00;;;;;;;13.34;98.24;101552.31;10501531;28;20048;-86
2023/09/24 21:10:12;;;;;;;2.85;0.93;;;;;;;13.45;97.36;101553.94;10512844;28;20040;-86
2023/09/24 21:15:14;;;;;;;1.92;0.80;;;;;;;13.43;97.84;101561.69;10506831;28;20037;-87
2023/09/24 21:20:17;;;;;;;3.00;0.85;;;;;;;13.35;97.26;101573.25;10487872;28;20044;-86
2023/09/24 21:25:19;;;;;;;3.28;1.20;;;;;;;13.25;97.18;101571.34;10489476;28;20557;-86
2023/09/24 21:30:21;;;;;;;1.10;0.65;;;;;;;13.19;97.32;101569.66;10530607;28;20044;-87
2023/09/24 21:35:24;;;;;;;0.95;0.65;;;;;;;13.02;97.84;101577.38;10485649;28;20043;-87
2023/09/24 21:40:51;;;;;;;3.00;1.10;;;;;;;13.08;97.84;101590.88;10491230;28;20504;-86
2023/09/24 21:45:53;;;;;;;1.02;0.70;;;;;;;13.12;97.93;101588.38;10485871;28;20044;-86
2023/09/24 21:50:56;;;;;;;1.20;0.82;;;;;;;13.23;96.78;101595.59;10464592;28;20037;-87
2023/09/24 21:55:59;;;;;;;1.92;0.70;;;;;;;13.28;96.32;101606.63;10508485;28;20068;-86
2023/09/24 22:01:02;;;;;;;0.85;0.70;;;;;;;13.30;96.78;101601.66;10486080;28;20063;-87
2023/09/24 22:06:04;;;;;;;2.80;1.00;;;;;;;13.33;96.58;101606.59;10496480;28;20044;-87
2023/09/24 22:11:07;;;;;;;3.10;0.80;;;;;;;13.24;96.83;101609.09;10489710;28;20047;-87
2023/09/24 22:16:09;;;;;;;1.27;0.90;;;;;;;13.15;97.22;101610.69;10510697;28;20032;-86
2023/09/24 22:21:11;;;;;;;2.80;0.65;;;;;;;13.01;97.59;101620.59;10495566;28;20040;-86
2023/09/24 22:26:14;;;;;;;2.05;0.80;;;;;;;12.84;98.27;101615.38;10513790;28;20135;-88
2023/09/24 22:31:16;;;;;;;0.98;0.57;;;;;;;12.69;99.04;101629.09;10514018;28;20125;-86
2023/09/24 22:36:19;;;;;;;0.82;0.52;;;;;;;12.75;99.90;101633.50;10487491;28;20045;-86
2023/09/24 22:41:21;;;;;;;1.40;0.70;;;;;;;12.74;99.31;101636.53;10501311;28;20044;-85
2023/09/24 22:46:24;;;;;;;3.20;1.15;;;;;;;12.69;99.23;101640.13;10504974;28;20044;-86
2023/09/24 22:51:27;;;;;;;0.55;0.55;;;;;;;12.88;99.41;101655.03;10490532;28;20438;-86
2023/09/24 22:56:30;;;;;;;3.05;0.80;;;;;;;12.76;98.50;101650.88;10528865;28;20053;-85
2023/09/24 23:01:33;;;;;;;3.25;0.80;;;;;;;12.78;98.30;101665.19;10503523;28;20037;-85
2023/09/24 23:06:35;;;;;;;1.45;0.70;;;;;;;12.67;98.67;101664.34;10467302;28;20044;-86
2023/09/24 23:11:38;;;;;;;1.63;0.70;;;;;;;12.67;98.82;101672.59;10499796;28;20047;-85
2023/09/24 23:16:41;;;;;;;3.70;0.70;;;;;;;12.70;98.76;101682.25;10468217;28;20044;-85